Time;durP1;ratioP1;P1;durP2;ratioP2;P2;SDS_P1;SDS_P2;PMS_P1;PMS_P2;Temp;Humidity;BMP_temperature;BMP_pressure;BME280_temperature;BME280_humidity;BME280_pressure;Samples;Min_cycle;Max_cycle;Signal;HPM_P1;HPM_P2
2023/12/15 00:01:29;;;;;;;37.50;20.85;;;;;;;;;;4992528;28;20045;-71
2023/12/15 00:03:55;;;;;;;36.97;19.70;;;;;;;;;;4992997;28;20046;-71
2023/12/15 00:06:21;;;;;;;37.03;21.50;;;;;;;;;;4992001;28;20045;-71
2023/12/15 00:08:47;;;;;;;41.22;21.33;;;;;;;;;;4976350;28;20038;-71
2023/12/15 00:11:13;;;;;;;39.40;20.80;;;;;;;;;;4992621;28;20161;-71
2023/12/15 00:13:41;;;;;;;37.78;20.52;;;;;;;;;;4976586;28;20042;-71
2023/12/15 00:16:07;;;;;;;37.10;20.52;;;;;;;;;;4992900;28;20054;-71
2023/12/15 00:18:33;;;;;;;41.08;22.33;;;;;;;;;;4998578;28;20034;-71
2023/12/15 00:20:59;;;;;;;42.28;21.60;;;;;;;;;;5012868;28;20073;-71
2023/12/15 00:23:25;;;;;;;43.95;23.40;;;;;;;;;;5012612;28;20037;-71
2023/12/15 00:25:52;;;;;;;43.00;23.00;;;;;;;;;;5004570;28;20042;-71
2023/12/15 00:28:18;;;;;;;40.05;22.50;;;;;;;;;;4992404;28;20069;-71
2023/12/15 00:30:44;;;;;;;41.22;23.00;;;;;;;;;;4996578;28;20444;-71
2023/12/15 00:33:11;;;;;;;46.20;23.83;;;;;;;;;;4996947;28;20393;-71
2023/12/15 00:35:37;;;;;;;47.28;24.48;;;;;;;;;;4997510;28;20054;-71
2023/12/15 00:38:03;;;;;;;47.92;24.23;;;;;;;;;;4997062;28;20129;-71
2023/12/15 00:40:31;;;;;;;43.55;22.92;;;;;;;;;;4997036;28;20048;-71
2023/12/15 00:42:57;;;;;;;42.95;23.48;;;;;;;;;;4996602;28;20089;-71
2023/12/15 00:45:23;;;;;;;43.63;24.02;;;;;;;;;;4997668;28;20061;-71
2023/12/15 00:47:49;;;;;;;47.33;25.15;;;;;;;;;;4980773;28;20053;-71
2023/12/15 00:50:16;;;;;;;52.85;25.30;;;;;;;;;;4996297;28;20042;-71
2023/12/15 00:52:42;;;;;;;46.78;23.73;;;;;;;;;;4996446;28;20125;-71
2023/12/15 00:55:08;;;;;;;41.40;24.35;;;;;;;;;;4995465;28;20088;-71
2023/12/15 00:57:34;;;;;;;44.47;24.98;;;;;;;;;;4996173;28;20046;-71
2023/12/15 01:00:00;;;;;;;48.58;25.73;;;;;;;;;;4996826;28;20053;-71
2023/12/15 01:02:26;;;;;;;55.72;25.73;;;;;;;;;;4995907;28;20050;-71
2023/12/15 01:04:52;;;;;;;51.63;28.27;;;;;;;;;;4995597;28;20070;-71
2023/12/15 01:07:18;;;;;;;45.10;23.27;;;;;;;;;;4996088;28;20054;-71
2023/12/15 01:09:44;;;;;;;53.13;26.58;;;;;;;;;;4996069;28;20043;-71
2023/12/15 01:12:10;;;;;;;49.92;26.15;;;;;;;;;;4995790;28;20042;-71
2023/12/15 01:14:36;;;;;;;48.28;25.58;;;;;;;;;;4995869;28;20038;-71
2023/12/15 01:17:02;;;;;;;52.47;27.83;;;;;;;;;;4995891;28;20034;-71
2023/12/15 01:19:28;;;;;;;56.65;26.85;;;;;;;;;;5007859;28;20046;-71
2023/12/15 01:21:54;;;;;;;52.95;27.23;;;;;;;;;;5015011;28;20084;-71
2023/12/15 01:24:21;;;;;;;60.42;26.02;;;;;;;;;;5015179;28;20054;-71
2023/12/15 01:26:47;;;;;;;53.53;27.20;;;;;;;;;;4999650;28;20909;-71
2023/12/15 01:29:13;;;;;;;53.13;27.85;;;;;;;;;;4978834;28;20082;-71
2023/12/15 01:31:38;;;;;;;51.08;27.17;;;;;;;;;;4994657;28;20112;-71
2023/12/15 01:34:05;;;;;;;54.25;27.55;;;;;;;;;;4994609;28;20466;-71
2023/12/15 01:36:31;;;;;;;58.03;27.88;;;;;;;;;;4994135;28;20425;-71
2023/12/15 01:38:57;;;;;;;56.05;29.10;;;;;;;;;;4994186;28;20412;-71
2023/12/15 01:41:23;;;;;;;59.63;30.77;;;;;;;;;;4993748;28;20549;-71
2023/12/15 01:43:49;;;;;;;54.83;29.42;;;;;;;;;;4996027;28;20046;-71
2023/12/15 01:46:15;;;;;;;61.85;30.95;;;;;;;;;;4994694;28;20480;-71
2023/12/15 01:48:43;;;;;;;59.38;29.85;;;;;;;;;;4994499;28;20520;-71
2023/12/15 01:51:09;;;;;;;57.42;30.10;;;;;;;;;;4993939;28;20078;-71
2023/12/15 01:53:35;;;;;;;61.08;29.38;;;;;;;;;;4994189;28;20523;-71
2023/12/15 01:56:01;;;;;;;69.50;30.38;;;;;;;;;;4994270;28;20038;-71
2023/12/15 01:58:27;;;;;;;71.80;31.67;;;;;;;;;;4993754;28;20085;-71
2023/12/15 02:00:53;;;;;;;73.63;32.13;;;;;;;;;;4977632;28;20188;-71
2023/12/15 02:03:19;;;;;;;67.78;31.20;;;;;;;;;;4994349;28;20643;-71
2023/12/15 02:05:45;;;;;;;59.38;29.45;;;;;;;;;;4993412;28;20061;-71
2023/12/15 02:08:11;;;;;;;60.83;30.42;;;;;;;;;;4993728;28;20042;-71
2023/12/15 02:10:38;;;;;;;68.47;29.92;;;;;;;;;;4993784;28;20795;-71
2023/12/15 02:13:04;;;;;;;62.78;30.60;;;;;;;;;;4994131;28;20065;-71
2023/12/15 02:15:30;;;;;;;63.90;31.13;;;;;;;;;;4993579;28;20038;-71
2023/12/15 02:17:56;;;;;;;62.50;30.02;;;;;;;;;;4995277;28;20050;-71
2023/12/15 02:20:22;;;;;;;65.93;31.15;;;;;;;;;;5012901;28;20088;-71
2023/12/15 02:22:48;;;;;;;69.88;32.28;;;;;;;;;;4997353;28;20778;-71
2023/12/15 02:25:14;;;;;;;64.05;32.00;;;;;;;;;;4993579;28;20050;-71
2023/12/15 02:27:41;;;;;;;65.63;30.65;;;;;;;;;;4992769;28;20146;-71
2023/12/15 02:30:07;;;;;;;61.83;30.95;;;;;;;;;;4993004;28;20054;-71
2023/12/15 02:32:33;;;;;;;68.72;31.13;;;;;;;;;;4992768;28;20129;-71
2023/12/15 02:34:59;;;;;;;69.35;32.60;;;;;;;;;;4992498;28;20133;-71
2023/12/15 02:37:25;;;;;;;68.80;31.63;;;;;;;;;;4992971;28;20047;-71
2023/12/15 02:39:51;;;;;;;62.33;30.73;;;;;;;;;;4992826;28;20489;-71
2023/12/15 02:42:17;;;;;;;64.65;31.08;;;;;;;;;;4992622;28;20050;-71
2023/12/15 02:44:44;;;;;;;64.50;30.90;;;;;;;;;;4992767;28;20485;-71
2023/12/15 02:47:10;;;;;;;63.88;32.35;;;;;;;;;;4992586;28;20046;-72
2023/12/15 02:49:39;;;;;;;66.72;31.33;;;;;;;;;;4991685;28;20078;-71
2023/12/15 02:52:06;;;;;;;64.35;30.88;;;;;;;;;;4991898;28;20096;-71
2023/12/15 02:54:33;;;;;;;66.03;32.05;;;;;;;;;;4992158;28;20053;-71
2023/12/15 02:56:59;;;;;;;57.63;30.08;;;;;;;;;;4991627;28;20038;-71
2023/12/15 02:59:25;;;;;;;65.47;31.27;;;;;;;;;;4992308;28;20046;-71
2023/12/15 03:01:51;;;;;;;66.22;33.08;;;;;;;;;;4991858;28;20104;-71
2023/12/15 03:04:17;;;;;;;65.60;30.98;;;;;;;;;;4993247;28;20042;-71
2023/12/15 03:06:43;;;;;;;65.38;30.73;;;;;;;;;;4992102;28;20057;-71
2023/12/15 03:09:09;;;;;;;63.95;32.25;;;;;;;;;;4975598;28;20125;-71
2023/12/15 03:11:35;;;;;;;72.82;32.95;;;;;;;;;;4991561;28;20397;-71
2023/12/15 03:14:01;;;;;;;60.70;31.35;;;;;;;;;;4991858;28;20045;-71
2023/12/15 03:16:27;;;;;;;65.15;31.42;;;;;;;;;;4976102;28;20042;-71
2023/12/15 03:18:53;;;;;;;75.57;31.98;;;;;;;;;;4999956;28;20362;-71
2023/12/15 03:21:19;;;;;;;66.30;32.08;;;;;;;;;;5011401;28;20127;-71
2023/12/15 03:23:46;;;;;;;73.53;32.65;;;;;;;;;;5011714;28;20041;-71
2023/12/15 03:26:12;;;;;;;71.00;32.30;;;;;;;;;;4984416;28;20080;-71
2023/12/15 03:28:41;;;;;;;78.78;34.20;;;;;;;;;;4991600;28;20521;-71
2023/12/15 03:31:08;;;;;;;66.97;32.05;;;;;;;;;;4991277;28;20371;-71
2023/12/15 03:33:37;;;;;;;69.97;32.95;;;;;;;;;;4991494;28;20050;-71
2023/12/15 03:36:04;;;;;;;67.15;30.23;;;;;;;;;;4991844;28;20039;-71
2023/12/15 03:38:30;;;;;;;70.55;31.02;;;;;;;;;;4991214;28;20046;-71
2023/12/15 03:40:56;;;;;;;66.65;32.25;;;;;;;;;;4991091;28;20456;-71
2023/12/15 03:43:22;;;;;;;79.10;33.28;;;;;;;;;;4993197;28;20052;-71
2023/12/15 03:45:48;;;;;;;69.45;31.50;;;;;;;;;;4991520;28;20473;-71
2023/12/15 03:48:14;;;;;;;77.10;32.83;;;;;;;;;;4991049;28;20077;-71
2023/12/15 03:50:41;;;;;;;84.80;31.92;;;;;;;;;;4991179;28;20039;-71
2023/12/15 03:53:07;;;;;;;69.40;31.65;;;;;;;;;;4974893;28;20042;-71
2023/12/15 03:55:33;;;;;;;70.78;32.15;;;;;;;;;;4991191;28;20042;-71
2023/12/15 03:57:59;;;;;;;68.93;30.90;;;;;;;;;;4991225;28;20053;-71
2023/12/15 04:00:25;;;;;;;70.03;31.55;;;;;;;;;;4991381;28;20129;-71
2023/12/15 04:02:51;;;;;;;76.68;31.65;;;;;;;;;;4990891;28;20050;-72
2023/12/15 04:05:20;;;;;;;79.65;30.98;;;;;;;;;;4990565;28;20046;-71
2023/12/15 04:07:46;;;;;;;67.88;30.33;;;;;;;;;;4990630;28;20042;-71
2023/12/15 04:10:12;;;;;;;70.50;31.58;;;;;;;;;;4990290;28;20085;-71
2023/12/15 04:12:38;;;;;;;67.28;31.42;;;;;;;;;;4990524;28;20042;-71
2023/12/15 04:15:05;;;;;;;63.60;30.35;;;;;;;;;;4991097;28;20465;-71
2023/12/15 04:17:31;;;;;;;59.95;29.52;;;;;;;;;;4991300;28;20129;-71
2023/12/15 04:19:57;;;;;;;72.35;29.92;;;;;;;;;;5008429;28;20682;-71
2023/12/15 04:22:23;;;;;;;63.45;30.38;;;;;;;;;;5010575;28;20104;-71
2023/12/15 04:24:50;;;;;;;73.50;31.23;;;;;;;;;;5010212;28;20057;-71
2023/12/15 04:27:16;;;;;;;59.08;28.67;;;;;;;;;;4991278;28;20129;-71
2023/12/15 04:29:42;;;;;;;73.22;31.45;;;;;;;;;;4991735;28;20525;-71
2023/12/15 04:32:08;;;;;;;70.75;29.63;;;;;;;;;;4990738;28;20603;-71
2023/12/15 04:34:34;;;;;;;75.63;31.77;;;;;;;;;;4990655;28;20397;-71
2023/12/15 04:37:00;;;;;;;67.00;29.90;;;;;;;;;;4990985;28;20054;-71
2023/12/15 04:39:27;;;;;;;63.80;30.35;;;;;;;;;;4990279;28;20046;-71
2023/12/15 04:41:54;;;;;;;63.20;28.85;;;;;;;;;;4974744;28;20046;-71
2023/12/15 04:44:21;;;;;;;71.82;30.15;;;;;;;;;;4990976;28;20081;-71
2023/12/15 04:46:47;;;;;;;68.82;29.45;;;;;;;;;;4990103;28;20057;-71
2023/12/15 04:49:13;;;;;;;59.20;28.23;;;;;;;;;;4990677;28;20042;-71
2023/12/15 04:51:39;;;;;;;60.65;28.15;;;;;;;;;;4990970;28;20038;-71
2023/12/15 04:54:05;;;;;;;69.97;28.23;;;;;;;;;;4990253;28;20465;-71
2023/12/15 04:56:31;;;;;;;94.28;30.35;;;;;;;;;;4990548;28;20057;-71
2023/12/15 04:58:57;;;;;;;62.15;27.63;;;;;;;;;;4992081;28;20462;-71
2023/12/15 05:01:25;;;;;;;76.43;29.80;;;;;;;;;;4991528;28;20050;-71
2023/12/15 05:03:51;;;;;;;75.22;30.98;;;;;;;;;;4990661;28;20458;-71
2023/12/15 05:06:21;;;;;;;69.07;29.10;;;;;;;;;;4990681;28;20050;-71
2023/12/15 05:08:47;;;;;;;61.13;28.30;;;;;;;;;;4989902;28;20038;-71
2023/12/15 05:11:14;;;;;;;62.88;28.88;;;;;;;;;;4989952;28;20046;-71
2023/12/15 05:13:40;;;;;;;54.60;27.42;;;;;;;;;;4990509;28;20042;-71
2023/12/15 05:16:06;;;;;;;70.80;29.20;;;;;;;;;;4992308;28;20034;-71
2023/12/15 05:18:32;;;;;;;61.30;28.73;;;;;;;;;;4999910;28;20037;-71
2023/12/15 05:20:59;;;;;;;62.05;27.85;;;;;;;;;;5013777;28;20668;-71
2023/12/15 05:23:25;;;;;;;63.38;28.52;;;;;;;;;;5013956;28;20089;-71
2023/12/15 05:25:51;;;;;;;61.60;27.58;;;;;;;;;;5005387;28;20096;-71
2023/12/15 05:28:17;;;;;;;67.18;29.55;;;;;;;;;;4993609;28;20173;-71
2023/12/15 05:30:44;;;;;;;62.75;28.73;;;;;;;;;;4993860;28;20420;-71
2023/12/15 05:33:10;;;;;;;66.80;28.05;;;;;;;;;;4993427;28;20053;-71
2023/12/15 05:35:37;;;;;;;64.18;27.50;;;;;;;;;;4993796;28;20042;-71
2023/12/15 05:38:03;;;;;;;67.32;28.88;;;;;;;;;;4993801;28;20042;-71
2023/12/15 05:40:30;;;;;;;64.82;28.25;;;;;;;;;;4977313;28;20066;-71
2023/12/15 05:42:56;;;;;;;66.95;28.90;;;;;;;;;;4993919;28;20125;-71
2023/12/15 05:45:22;;;;;;;62.15;27.63;;;;;;;;;;4993865;28;20046;-71
2023/12/15 05:47:49;;;;;;;69.75;28.65;;;;;;;;;;4993407;28;20050;-71
2023/12/15 05:50:15;;;;;;;63.25;26.92;;;;;;;;;;4993564;28;20541;-71
2023/12/15 05:52:41;;;;;;;70.13;27.77;;;;;;;;;;4995029;28;20126;-71
2023/12/15 05:55:08;;;;;;;65.90;28.60;;;;;;;;;;4993947;28;20054;-71
2023/12/15 05:57:34;;;;;;;63.20;27.05;;;;;;;;;;4993550;28;20125;-71
2023/12/15 06:00:00;;;;;;;64.55;27.42;;;;;;;;;;4993429;28;20042;-71
2023/12/15 06:02:26;;;;;;;68.78;25.92;;;;;;;;;;4993171;28;20042;-71
2023/12/15 06:04:52;;;;;;;64.15;26.35;;;;;;;;;;4993988;28;20500;-71
2023/12/15 06:07:19;;;;;;;69.25;26.42;;;;;;;;;;4993215;28;20042;-71
2023/12/15 06:09:45;;;;;;;59.25;25.30;;;;;;;;;;4992931;28;20084;-71
2023/12/15 06:12:11;;;;;;;62.90;25.15;;;;;;;;;;4993375;28;20121;-71
2023/12/15 06:14:37;;;;;;;56.53;24.95;;;;;;;;;;4993306;28;20104;-71
2023/12/15 06:17:06;;;;;;;66.65;26.00;;;;;;;;;;4992940;28;20504;-71
2023/12/15 06:19:33;;;;;;;63.75;26.60;;;;;;;;;;5006668;28;20517;-71
2023/12/15 06:21:59;;;;;;;56.03;24.38;;;;;;;;;;5012584;28;20049;-71
2023/12/15 06:24:25;;;;;;;64.63;26.70;;;;;;;;;;5012017;28;20045;-71
2023/12/15 06:26:51;;;;;;;72.15;25.02;;;;;;;;;;4980606;28;20397;-71
2023/12/15 06:29:17;;;;;;;62.97;24.73;;;;;;;;;;4992119;28;20065;-71
2023/12/15 06:31:46;;;;;;;57.50;24.60;;;;;;;;;;4992161;28;20551;-71
2023/12/15 06:34:14;;;;;;;63.45;25.27;;;;;;;;;;4992498;28;20042;-71
2023/12/15 06:36:42;;;;;;;61.75;24.67;;;;;;;;;;4993757;28;20038;-71
2023/12/15 06:39:10;;;;;;;59.50;25.02;;;;;;;;;;4994106;28;20493;-72
2023/12/15 06:41:36;;;;;;;63.67;23.63;;;;;;;;;;4992969;28;20042;-71
2023/12/15 06:44:02;;;;;;;68.05;25.30;;;;;;;;;;4997555;28;20054;-73
2023/12/15 06:46:28;;;;;;;62.30;24.08;;;;;;;;;;4993445;28;20038;-73
2023/12/15 06:48:54;;;;;;;67.78;25.75;;;;;;;;;;4991847;28;20548;-74
2023/12/15 06:51:20;;;;;;;65.70;24.15;;;;;;;;;;4991762;28;20035;-72
2023/12/15 06:53:46;;;;;;;62.67;24.60;;;;;;;;;;4991728;28;20049;-73
2023/12/15 06:56:12;;;;;;;69.20;26.33;;;;;;;;;;4991513;28;20547;-74
2023/12/15 06:58:38;;;;;;;61.83;24.42;;;;;;;;;;4991573;28;20096;-74
2023/12/15 07:01:05;;;;;;;63.35;24.88;;;;;;;;;;4990786;28;20409;-74
2023/12/15 07:03:31;;;;;;;77.80;26.80;;;;;;;;;;4991490;28;20042;-74
2023/12/15 07:05:57;;;;;;;63.50;24.30;;;;;;;;;;4992669;28;20536;-71
2023/12/15 07:08:23;;;;;;;62.03;24.17;;;;;;;;;;4993674;28;20057;-71
2023/12/15 07:10:49;;;;;;;62.95;26.40;;;;;;;;;;5004582;28;20046;-71
2023/12/15 07:13:15;;;;;;;75.10;25.80;;;;;;;;;;5000126;28;20076;-72
2023/12/15 07:15:41;;;;;;;77.85;24.08;;;;;;;;;;5001023;28;20077;-72
2023/12/15 07:18:07;;;;;;;74.03;25.10;;;;;;;;;;5003987;28;20046;-72
2023/12/15 07:20:34;;;;;;;71.30;25.73;;;;;;;;;;5005618;28;20098;-72
2023/12/15 07:23:01;;;;;;;67.65;25.98;;;;;;;;;;5005097;28;20049;-73
2023/12/15 07:25:28;;;;;;;59.53;24.30;;;;;;;;;;5005739;28;20053;-72
2023/12/15 07:27:55;;;;;;;57.58;23.98;;;;;;;;;;5010457;28;20097;-72
2023/12/15 07:30:22;;;;;;;57.75;23.83;;;;;;;;;;4996830;28;20065;-72
2023/12/15 07:32:48;;;;;;;55.97;24.15;;;;;;;;;;4996383;28;20084;-72
2023/12/15 07:35:14;;;;;;;61.35;24.20;;;;;;;;;;5002481;28;20129;-72
2023/12/15 07:37:40;;;;;;;55.47;23.77;;;;;;;;;;4985954;28;20046;-71
2023/12/15 07:40:06;;;;;;;57.60;22.92;;;;;;;;;;4999525;28;20046;-72
2023/12/15 07:42:32;;;;;;;58.90;23.40;;;;;;;;;;5001955;28;20046;-73
2023/12/15 07:44:58;;;;;;;65.22;24.73;;;;;;;;;;4996687;28;20046;-73
2023/12/15 07:47:25;;;;;;;56.33;22.08;;;;;;;;;;5006053;28;20149;-72
2023/12/15 07:49:52;;;;;;;57.60;21.85;;;;;;;;;;4996754;28;20132;-73
2023/12/15 07:52:20;;;;;;;56.47;22.73;;;;;;;;;;5003548;28;20069;-73
2023/12/15 07:54:46;;;;;;;53.78;21.67;;;;;;;;;;5000494;28;20044;-72
2023/12/15 07:57:13;;;;;;;58.70;22.75;;;;;;;;;;4984933;28;20048;-72
2023/12/15 07:59:39;;;;;;;51.97;21.95;;;;;;;;;;4997520;28;20093;-71
2023/12/15 08:02:05;;;;;;;46.95;20.48;;;;;;;;;;4993752;28;20092;-71
2023/12/15 08:04:31;;;;;;;47.85;20.42;;;;;;;;;;5002554;28;20054;-71
2023/12/15 08:06:57;;;;;;;49.60;20.73;;;;;;;;;;4987648;28;20046;-72
2023/12/15 08:09:23;;;;;;;46.80;20.02;;;;;;;;;;4993949;28;20133;-73
2023/12/15 08:11:49;;;;;;;47.92;19.88;;;;;;;;;;5000655;28;20061;-71
2023/12/15 08:14:15;;;;;;;47.85;19.83;;;;;;;;;;4996496;28;20031;-72
2023/12/15 08:16:41;;;;;;;41.47;19.17;;;;;;;;;;5002428;28;20053;-72
2023/12/15 08:19:08;;;;;;;47.10;19.50;;;;;;;;;;5002714;28;20054;-71
2023/12/15 08:21:34;;;;;;;45.22;19.90;;;;;;;;;;4991984;28;20593;-73
2023/12/15 08:24:00;;;;;;;47.92;18.92;;;;;;;;;;4990389;28;20081;-73
2023/12/15 08:26:27;;;;;;;53.00;20.33;;;;;;;;;;5003768;28;20061;-74
2023/12/15 08:28:54;;;;;;;45.80;18.98;;;;;;;;;;5002083;28;20058;-72
2023/12/15 08:31:20;;;;;;;48.42;19.92;;;;;;;;;;4990924;28;20145;-72
2023/12/15 08:33:47;;;;;;;44.50;19.38;;;;;;;;;;4990670;28;20038;-73
2023/12/15 08:36:14;;;;;;;52.15;19.95;;;;;;;;;;4992244;28;20039;-72
2023/12/15 08:38:41;;;;;;;49.22;18.48;;;;;;;;;;4982726;28;20128;-72
2023/12/15 08:41:07;;;;;;;49.33;18.67;;;;;;;;;;4980793;28;20509;-73
2023/12/15 08:43:33;;;;;;;38.92;17.75;;;;;;;;;;4990904;28;20540;-72
2023/12/15 08:46:01;;;;;;;48.17;17.80;;;;;;;;;;5007144;28;20064;-73
2023/12/15 08:48:28;;;;;;;48.95;17.67;;;;;;;;;;5010039;28;20041;-72
2023/12/15 08:50:54;;;;;;;48.20;16.85;;;;;;;;;;5013686;28;20123;-74
2023/12/15 08:53:20;;;;;;;47.90;17.42;;;;;;;;;;4997036;28;20560;-73
2023/12/15 08:55:47;;;;;;;42.50;17.08;;;;;;;;;;5015463;28;20096;-71
2023/12/15 08:58:15;;;;;;;36.40;16.08;;;;;;;;;;5004291;28;20049;-72
2023/12/15 09:00:42;;;;;;;42.33;15.35;;;;;;;;;;4988988;28;20042;-71
2023/12/15 09:03:08;;;;;;;42.10;16.30;;;;;;;;;;4989995;28;20050;-72
2023/12/15 09:05:34;;;;;;;39.42;16.00;;;;;;;;;;5009368;28;20169;-71
2023/12/15 09:08:02;;;;;;;41.17;15.70;;;;;;;;;;5002439;28;20046;-72
2023/12/15 09:10:33;;;;;;;49.25;14.90;;;;;;;;;;5015548;28;20061;-71
2023/12/15 09:13:02;;;;;;;45.20;15.68;;;;;;;;;;4998308;28;20038;-72
2023/12/15 09:15:28;;;;;;;35.60;14.25;;;;;;;;;;5007275;28;20116;-72
2023/12/15 09:17:55;;;;;;;40.67;15.00;;;;;;;;;;4999767;28;20089;-72
2023/12/15 09:20:21;;;;;;;39.92;14.95;;;;;;;;;;4999184;28;20070;-72
2023/12/15 09:22:47;;;;;;;39.08;14.20;;;;;;;;;;4982536;28;20077;-72
2023/12/15 09:25:13;;;;;;;37.70;13.45;;;;;;;;;;5001087;28;20071;-72
2023/12/15 09:27:39;;;;;;;44.63;14.02;;;;;;;;;;5015693;28;20050;-72
2023/12/15 09:30:11;;;;;;;38.95;12.90;;;;;;;;;;5006177;28;20057;-71
2023/12/15 09:32:38;;;;;;;36.90;13.23;;;;;;;;;;5015723;28;20038;-71
2023/12/15 09:35:04;;;;;;;39.85;13.57;;;;;;;;;;5009878;28;20269;-71
2023/12/15 09:37:30;;;;;;;40.05;13.88;;;;;;;;;;5005148;28;20097;-70
2023/12/15 09:39:56;;;;;;;36.17;12.73;;;;;;;;;;5001504;28;20041;-70
2023/12/15 09:42:23;;;;;;;39.75;14.40;;;;;;;;;;5002136;28;20046;-70
2023/12/15 09:44:50;;;;;;;44.78;14.50;;;;;;;;;;4998996;28;20114;-70
2023/12/15 09:47:22;;;;;;;39.97;14.55;;;;;;;;;;5001145;28;20042;-72
2023/12/15 09:49:52;;;;;;;37.92;13.00;;;;;;;;;;5011541;28;20041;-72
2023/12/15 09:52:21;;;;;;;41.17;14.00;;;;;;;;;;5018901;28;20049;-72
2023/12/15 09:54:50;;;;;;;34.33;13.63;;;;;;;;;;5018309;28;20041;-72
2023/12/15 09:57:17;;;;;;;34.60;12.55;;;;;;;;;;5006965;28;20037;-72
2023/12/15 09:59:43;;;;;;;39.78;14.00;;;;;;;;;;5015493;28;20049;-72
2023/12/15 10:02:11;;;;;;;34.45;13.05;;;;;;;;;;5014220;28;20077;-72
2023/12/15 10:04:37;;;;;;;41.65;13.68;;;;;;;;;;5006474;28;20046;-72
2023/12/15 10:07:03;;;;;;;42.17;13.38;;;;;;;;;;4985491;28;20050;-70
2023/12/15 10:09:29;;;;;;;35.97;13.30;;;;;;;;;;4987186;28;20049;-72
2023/12/15 10:11:55;;;;;;;41.97;12.50;;;;;;;;;;5011016;28;20057;-72
2023/12/15 10:14:21;;;;;;;33.38;11.82;;;;;;;;;;4995105;28;20034;-73
2023/12/15 10:16:47;;;;;;;34.08;11.10;;;;;;;;;;5009176;28;20037;-73
2023/12/15 10:19:14;;;;;;;38.85;14.30;;;;;;;;;;4988595;28;20038;-72
2023/12/15 10:21:40;;;;;;;37.20;11.80;;;;;;;;;;5007469;28;20042;-73
2023/12/15 10:24:23;;;;;;;45.80;12.25;;;;;;;;;;4979298;28;20042;-72
2023/12/15 10:26:49;;;;;;;;;;;;;;;;;;5009820;28;20045;-73
2023/12/15 10:29:15;;;;;;;34.78;11.15;;;;;;;;;;5004386;28;19937;-73
2023/12/15 10:31:42;;;;;;;37.35;11.85;;;;;;;;;;5010437;28;20050;-72
2023/12/15 10:34:08;;;;;;;28.80;10.20;;;;;;;;;;5004399;28;20652;-73
2023/12/15 10:36:40;;;;;;;36.42;11.48;;;;;;;;;;4990267;28;20042;-71
2023/12/15 10:39:06;;;;;;;35.15;10.32;;;;;;;;;;5013586;28;20125;-71
2023/12/15 10:41:34;;;;;;;37.25;9.82;;;;;;;;;;5004355;28;20053;-72
2023/12/15 10:44:03;;;;;;;33.70;9.77;;;;;;;;;;4991176;28;20409;-71
2023/12/15 10:46:31;;;;;;;45.72;11.00;;;;;;;;;;5009867;28;20068;-72
2023/12/15 10:48:59;;;;;;;35.17;10.05;;;;;;;;;;5018818;28;20042;-73
2023/12/15 10:51:25;;;;;;;34.60;10.82;;;;;;;;;;5008240;28;20053;-70
2023/12/15 10:53:56;;;;;;;37.78;10.07;;;;;;;;;;5013337;28;20039;-71
2023/12/15 10:56:26;;;;;;;36.20;9.52;;;;;;;;;;5005818;28;20073;-71
2023/12/15 10:58:52;;;;;;;33.10;9.50;;;;;;;;;;4996248;28;20050;-74
2023/12/15 11:01:19;;;;;;;38.50;10.00;;;;;;;;;;4997060;28;20042;-71
2023/12/15 11:03:45;;;;;;;36.15;9.45;;;;;;;;;;4997821;28;20042;-74
2023/12/15 11:06:11;;;;;;;37.30;9.32;;;;;;;;;;5003092;28;20052;-74
2023/12/15 11:08:38;;;;;;;35.58;8.38;;;;;;;;;;5013670;28;20089;-73
2023/12/15 11:11:08;;;;;;;39.25;9.07;;;;;;;;;;4996789;28;20117;-72
2023/12/15 11:13:53;;;;;;;32.22;8.32;;;;;;;;;;4993719;28;20482;-73
2023/12/15 11:16:20;;;;;;;23.83;7.90;;;;;;;;;;4991704;28;20113;-73
2023/12/15 11:18:49;;;;;;;33.95;7.57;;;;;;;;;;4994395;28;20043;-74
2023/12/15 11:21:17;;;;;;;37.15;8.77;;;;;;;;;;4993462;28;20132;-72
2023/12/15 11:24:09;;;;;;;37.83;8.52;;;;;;;;;;5012445;28;20127;-73
2023/12/15 11:26:42;;;;;;;35.45;8.02;;;;;;;;;;4997299;28;20069;-72
2023/12/15 11:29:09;;;;;;;38.25;8.15;;;;;;;;;;5000588;28;20054;-71
2023/12/15 11:31:36;;;;;;;41.92;7.47;;;;;;;;;;5006310;28;20046;-72
2023/12/15 11:34:03;;;;;;;33.13;6.60;;;;;;;;;;4993581;28;20046;-72
2023/12/15 11:36:30;;;;;;;39.17;7.60;;;;;;;;;;4993889;28;20054;-70
2023/12/15 11:38:58;;;;;;;32.67;6.97;;;;;;;;;;4994248;28;20068;-71
2023/12/15 11:41:24;;;;;;;40.00;7.78;;;;;;;;;;4998256;28;20060;-70
2023/12/15 11:43:51;;;;;;;33.10;7.13;;;;;;;;;;5013759;28;20045;-71
2023/12/15 11:46:20;;;;;;;38.53;7.20;;;;;;;;;;5006295;28;20050;-70
2023/12/15 11:48:46;;;;;;;39.38;7.22;;;;;;;;;;4996587;28;20053;-72
2023/12/15 11:51:14;;;;;;;43.83;7.18;;;;;;;;;;4998061;28;20402;-72
2023/12/15 11:53:42;;;;;;;31.98;6.63;;;;;;;;;;4998397;28;20034;-72
2023/12/15 11:56:11;;;;;;;30.63;6.75;;;;;;;;;;5000642;28;20046;-71
2023/12/15 11:58:38;;;;;;;31.30;6.95;;;;;;;;;;5010828;28;20042;-71
2023/12/15 12:01:05;;;;;;;44.58;8.18;;;;;;;;;;5013464;28;20046;-72
2023/12/15 12:03:31;;;;;;;26.58;5.93;;;;;;;;;;4994492;28;20042;-72
2023/12/15 12:05:58;;;;;;;35.30;7.07;;;;;;;;;;4978083;28;20046;-72
2023/12/15 12:08:24;;;;;;;36.08;7.30;;;;;;;;;;4994820;28;20132;-72
2023/12/15 12:10:53;;;;;;;36.30;7.13;;;;;;;;;;5007352;28;20050;-71
2023/12/15 12:13:20;;;;;;;40.22;7.10;;;;;;;;;;5012914;28;20603;-71
2023/12/15 12:15:52;;;;;;;37.03;6.78;;;;;;;;;;4996447;28;20434;-73
2023/12/15 12:18:23;;;;;;;38.13;8.10;;;;;;;;;;4999783;28;20045;-72
2023/12/15 12:20:53;;;;;;;30.42;6.97;;;;;;;;;;5014622;28;20042;-72
2023/12/15 12:23:23;;;;;;;38.95;7.53;;;;;;;;;;4978344;28;20485;-72
2023/12/15 12:25:50;;;;;;;33.60;6.70;;;;;;;;;;5000591;28;20053;-73
2023/12/15 12:28:19;;;;;;;43.08;7.75;;;;;;;;;;4977812;28;20074;-73
2023/12/15 12:30:45;;;;;;;37.55;6.75;;;;;;;;;;4990811;28;20058;-72
2023/12/15 12:33:11;;;;;;;27.85;6.68;;;;;;;;;;4994432;28;20038;-71
2023/12/15 12:35:38;;;;;;;40.38;6.85;;;;;;;;;;4995662;28;20046;-72
2023/12/15 12:38:04;;;;;;;44.72;8.65;;;;;;;;;;4997302;28;20042;-72
2023/12/15 12:40:30;;;;;;;30.30;6.18;;;;;;;;;;4995104;28;20065;-73
2023/12/15 12:42:58;;;;;;;34.03;6.13;;;;;;;;;;5007705;28;20498;-73
2023/12/15 12:45:24;;;;;;;32.63;5.45;;;;;;;;;;4998952;28;20136;-73
2023/12/15 12:47:51;;;;;;;32.58;6.85;;;;;;;;;;5009217;28;20050;-71
2023/12/15 12:50:18;;;;;;;33.53;6.95;;;;;;;;;;4993202;28;20043;-71
2023/12/15 12:52:44;;;;;;;26.80;6.38;;;;;;;;;;4995939;28;20438;-71
2023/12/15 12:55:10;;;;;;;31.35;6.13;;;;;;;;;;4993669;28;20034;-71
2023/12/15 12:57:36;;;;;;;33.75;5.82;;;;;;;;;;4995477;28;20373;-71
2023/12/15 13:00:06;;;;;;;36.70;6.10;;;;;;;;;;4995455;28;20097;-74
2023/12/15 13:02:33;;;;;;;30.65;5.72;;;;;;;;;;4978368;28;20042;-72
2023/12/15 13:04:59;;;;;;;40.35;6.55;;;;;;;;;;4985073;28;20042;-72
2023/12/15 13:07:26;;;;;;;31.75;5.80;;;;;;;;;;5015611;28;20042;-74
2023/12/15 13:09:52;;;;;;;29.75;5.78;;;;;;;;;;5011061;28;20050;-74
2023/12/15 13:12:18;;;;;;;34.58;6.55;;;;;;;;;;5003740;28;20045;-72
2023/12/15 13:14:47;;;;;;;30.17;6.03;;;;;;;;;;5005993;28;20049;-72
2023/12/15 13:17:14;;;;;;;28.75;5.60;;;;;;;;;;4997825;28;20141;-74
2023/12/15 13:19:40;;;;;;;40.17;6.03;;;;;;;;;;5005343;28;20044;-74
2023/12/15 13:22:09;;;;;;;30.17;5.80;;;;;;;;;;5006848;28;20087;-74
2023/12/15 13:24:35;;;;;;;31.17;5.65;;;;;;;;;;4995770;28;20048;-74
2023/12/15 13:27:01;;;;;;;36.70;5.70;;;;;;;;;;4997163;28;20074;-74
2023/12/15 13:29:27;;;;;;;27.25;5.93;;;;;;;;;;4991433;28;20054;-72
2023/12/15 13:31:53;;;;;;;27.75;5.68;;;;;;;;;;4992400;28;20046;-73
2023/12/15 13:34:19;;;;;;;36.65;6.95;;;;;;;;;;4989947;28;20067;-73
2023/12/15 13:36:45;;;;;;;27.10;5.40;;;;;;;;;;4998326;28;20039;-76
2023/12/15 13:39:12;;;;;;;31.77;5.68;;;;;;;;;;5000020;28;20121;-75
2023/12/15 13:41:38;;;;;;;35.30;5.55;;;;;;;;;;5002887;28;20121;-75
2023/12/15 13:44:05;;;;;;;30.27;5.57;;;;;;;;;;4979645;28;20050;-75
2023/12/15 13:46:31;;;;;;;27.88;4.78;;;;;;;;;;4996937;28;20046;-71
2023/12/15 13:48:59;;;;;;;23.23;4.80;;;;;;;;;;5025325;28;20059;-71
2023/12/15 13:51:25;;;;;;;26.50;5.25;;;;;;;;;;5009192;28;20042;-71
2023/12/15 13:53:54;;;;;;;33.03;5.15;;;;;;;;;;5009117;28;20058;-71
2023/12/15 13:56:23;;;;;;;33.70;5.43;;;;;;;;;;5026391;28;20050;-71
2023/12/15 13:58:50;;;;;;;34.05;5.95;;;;;;;;;;5010057;28;20050;-71
2023/12/15 14:01:18;;;;;;;35.65;6.18;;;;;;;;;;5009178;28;20054;-71
2023/12/15 14:03:45;;;;;;;25.00;6.15;;;;;;;;;;5009145;28;20062;-71
2023/12/15 14:06:12;;;;;;;32.33;5.93;;;;;;;;;;5010248;28;20049;-71
2023/12/15 14:08:40;;;;;;;27.40;5.20;;;;;;;;;;5008756;28;20497;-71
2023/12/15 14:11:11;;;;;;;24.45;6.25;;;;;;;;;;5010318;28;20038;-71
2023/12/15 14:13:38;;;;;;;35.42;5.30;;;;;;;;;;5007710;28;20074;-71
2023/12/15 14:16:05;;;;;;;28.30;5.15;;;;;;;;;;5009319;28;20046;-71
2023/12/15 14:18:32;;;;;;;23.92;5.22;;;;;;;;;;5023361;28;20042;-71